sensor_id;sensor_type;location;lat;lon;timestamp;pressure;altitude;pressure_sealevel;temperature;humidity
9059;BME280;4564;42.034;25.834;2023-09-08T00:02:01;100583.03;;;18.46;100.00
9059;BME280;4564;42.034;25.834;2023-09-08T00:04:28;100590.19;;;18.47;100.00
9059;BME280;4564;42.034;25.834;2023-09-08T00:06:54;100582.56;;;18.49;100.00
9059;BME280;4564;42.034;25.834;2023-09-08T00:09:21;100585.06;;;18.51;100.00
9059;BME280;4564;42.034;25.834;2023-09-08T00:11:48;100587.56;;;18.52;100.00
9059;BME280;4564;42.034;25.834;2023-09-08T00:14:14;100588.41;;;18.53;100.00
9059;BME280;4564;42.034;25.834;2023-09-08T00:16:43;100590.97;;;18.54;100.00
9059;BME280;4564;42.034;25.834;2023-09-08T00:19:09;100583.38;;;18.50;100.00
9059;BME280;4564;42.034;25.834;2023-09-08T00:21:36;100586.00;;;18.44;100.00
9059;BME280;4564;42.034;25.834;2023-09-08T00:24:03;100579.66;;;18.44;100.00
9059;BME280;4564;42.034;25.834;2023-09-08T00:26:30;100577.53;;;18.46;100.00
9059;BME280;4564;42.034;25.834;2023-09-08T00:28:56;100573.41;;;18.37;100.00
9059;BME280;4564;42.034;25.834;2023-09-08T00:31:23;100572.19;;;18.33;100.00
9059;BME280;4564;42.034;25.834;2023-09-08T00:33:51;100569.31;;;18.28;100.00
9059;BME280;4564;42.034;25.834;2023-09-08T00:36:18;100575.84;;;18.27;100.00
9059;BME280;4564;42.034;25.834;2023-09-08T00:38:44;100577.84;;;18.20;100.00
9059;BME280;4564;42.034;25.834;2023-09-08T00:41:11;100574.94;;;18.15;100.00
9059;BME280;4564;42.034;25.834;2023-09-08T00:43:38;100581.97;;;18.11;100.00
9059;BME280;4564;42.034;25.834;2023-09-08T00:46:04;100572.44;;;18.13;100.00
9059;BME280;4564;42.034;25.834;2023-09-08T00:48:32;100565.66;;;18.16;100.00
9059;BME280;4564;42.034;25.834;2023-09-08T00:51:01;100566.97;;;18.13;100.00
9059;BME280;4564;42.034;25.834;2023-09-08T00:53:30;100564.22;;;18.13;100.00
9059;BME280;4564;42.034;25.834;2023-09-08T00:55:57;100568.16;;;18.17;100.00
9059;BME280;4564;42.034;25.834;2023-09-08T00:58:25;100573.66;;;18.17;100.00
9059;BME280;4564;42.034;25.834;2023-09-08T01:00:51;100563.97;;;18.15;100.00
9059;BME280;4564;42.034;25.834;2023-09-08T01:03:18;100559.31;;;18.15;100.00
9059;BME280;4564;42.034;25.834;2023-09-08T01:05:45;100558.47;;;18.15;100.00
9059;BME280;4564;42.034;25.834;2023-09-08T01:08:15;100552.97;;;18.15;100.00
9059;BME280;4564;42.034;25.834;2023-09-08T01:10:42;100549.72;;;18.06;100.00
9059;BME280;4564;42.034;25.834;2023-09-08T01:13:08;100551.47;;;18.00;100.00
9059;BME280;4564;42.034;25.834;2023-09-08T01:15:35;100553.44;;;17.93;100.00
9059;BME280;4564;42.034;25.834;2023-09-08T01:18:02;100545.69;;;17.90;100.00
9059;BME280;4564;42.034;25.834;2023-09-08T01:20:30;100554.91;;;17.96;100.00
9059;BME280;4564;42.034;25.834;2023-09-08T01:23:06;100558.25;;;17.98;100.00
9059;BME280;4564;42.034;25.834;2023-09-08T01:25:40;100555.81;;;17.90;100.00
9059;BME280;4564;42.034;25.834;2023-09-08T01:28:07;100547.50;;;17.78;100.00
9059;BME280;4564;42.034;25.834;2023-09-08T01:30:34;100547.19;;;17.68;100.00
9059;BME280;4564;42.034;25.834;2023-09-08T01:33:01;100553.19;;;17.58;100.00
9059;BME280;4564;42.034;25.834;2023-09-08T01:35:28;100543.25;;;17.57;100.00
9059;BME280;4564;42.034;25.834;2023-09-08T01:37:54;100541.34;;;17.58;100.00
9059;BME280;4564;42.034;25.834;2023-09-08T01:40:21;100546.00;;;17.57;100.00
9059;BME280;4564;42.034;25.834;2023-09-08T01:42:49;100535.25;;;17.56;100.00
9059;BME280;4564;42.034;25.834;2023-09-08T01:45:16;100530.44;;;17.51;100.00
9059;BME280;4564;42.034;25.834;2023-09-08T01:47:43;100534.66;;;17.54;100.00
9059;BME280;4564;42.034;25.834;2023-09-08T01:50:09;100532.34;;;17.51;100.00
9059;BME280;4564;42.034;25.834;2023-09-08T01:52:36;100528.38;;;17.47;100.00
9059;BME280;4564;42.034;25.834;2023-09-08T01:55:03;100544.38;;;17.50;100.00
9059;BME280;4564;42.034;25.834;2023-09-08T01:57:29;100539.03;;;17.55;100.00
9059;BME280;4564;42.034;25.834;2023-09-08T01:59:57;100538.44;;;17.53;100.00
9059;BME280;4564;42.034;25.834;2023-09-08T02:02:24;100545.75;;;17.41;100.00
9059;BME280;4564;42.034;25.834;2023-09-08T02:04:50;100549.22;;;17.30;100.00
9059;BME280;4564;42.034;25.834;2023-09-08T02:07:17;100548.59;;;17.28;100.00
9059;BME280;4564;42.034;25.834;2023-09-08T02:09:44;100550.53;;;17.27;100.00
9059;BME280;4564;42.034;25.834;2023-09-08T02:12:10;100542.94;;;17.23;100.00
9059;BME280;4564;42.034;25.834;2023-09-08T02:14:37;100541.50;;;17.20;100.00
9059;BME280;4564;42.034;25.834;2023-09-08T02:17:05;100542.50;;;17.26;100.00
9059;BME280;4564;42.034;25.834;2023-09-08T02:19:32;100544.19;;;17.27;100.00
9059;BME280;4564;42.034;25.834;2023-09-08T02:21:59;100538.25;;;17.30;100.00
9059;BME280;4564;42.034;25.834;2023-09-08T02:24:25;100536.56;;;17.29;100.00
9059;BME280;4564;42.034;25.834;2023-09-08T02:26:52;100534.72;;;17.23;100.00
9059;BME280;4564;42.034;25.834;2023-09-08T02:29:19;100536.81;;;17.27;100.00
9059;BME280;4564;42.034;25.834;2023-09-08T02:31:46;100542.94;;;17.23;100.00
9059;BME280;4564;42.034;25.834;2023-09-08T02:34:14;100543.78;;;17.23;100.00
9059;BME280;4564;42.034;25.834;2023-09-08T02:36:40;100545.69;;;17.23;100.00
9059;BME280;4564;42.034;25.834;2023-09-08T02:39:07;100539.78;;;17.26;100.00
9059;BME280;4564;42.034;25.834;2023-09-08T02:41:33;100539.59;;;17.20;100.00
9059;BME280;4564;42.034;25.834;2023-09-08T02:44:00;100544.75;;;17.10;100.00
9059;BME280;4564;42.034;25.834;2023-09-08T02:46:27;100548.59;;;17.03;100.00
9059;BME280;4564;42.034;25.834;2023-09-08T02:48:53;100550.16;;;16.92;100.00
9059;BME280;4564;42.034;25.834;2023-09-08T02:51:21;100542.03;;;16.79;100.00
9059;BME280;4564;42.034;25.834;2023-09-08T02:53:48;100546.50;;;16.73;100.00
9059;BME280;4564;42.034;25.834;2023-09-08T02:56:15;100540.03;;;16.68;100.00
9059;BME280;4564;42.034;25.834;2023-09-08T02:58:41;100537.91;;;16.63;100.00
9059;BME280;4564;42.034;25.834;2023-09-08T03:01:10;100541.75;;;16.56;100.00
9059;BME280;4564;42.034;25.834;2023-09-08T03:03:37;100539.50;;;16.46;100.00
9059;BME280;4564;42.034;25.834;2023-09-08T03:06:04;100535.47;;;16.49;100.00
9059;BME280;4564;42.034;25.834;2023-09-08T03:08:32;100533.78;;;16.48;100.00
9059;BME280;4564;42.034;25.834;2023-09-08T03:10:59;100542.59;;;16.56;100.00
9059;BME280;4564;42.034;25.834;2023-09-08T03:13:26;100539.59;;;16.64;100.00
9059;BME280;4564;42.034;25.834;2023-09-08T03:15:54;100540.63;;;16.70;100.00
9059;BME280;4564;42.034;25.834;2023-09-08T03:18:20;100544.41;;;16.69;100.00
9059;BME280;4564;42.034;25.834;2023-09-08T03:20:48;100548.41;;;16.73;100.00
9059;BME280;4564;42.034;25.834;2023-09-08T03:23:15;100547.16;;;16.69;100.00
9059;BME280;4564;42.034;25.834;2023-09-08T03:25:43;100555.22;;;16.64;100.00
9059;BME280;4564;42.034;25.834;2023-09-08T03:28:09;100548.03;;;16.63;100.00
9059;BME280;4564;42.034;25.834;2023-09-08T03:30:36;100556.91;;;16.65;100.00
9059;BME280;4564;42.034;25.834;2023-09-08T03:33:03;100553.72;;;16.68;100.00
9059;BME280;4564;42.034;25.834;2023-09-08T03:35:29;100546.38;;;16.62;100.00
9059;BME280;4564;42.034;25.834;2023-09-08T03:37:56;100552.72;;;16.62;100.00
9059;BME280;4564;42.034;25.834;2023-09-08T03:40:23;100555.44;;;16.56;100.00
9059;BME280;4564;42.034;25.834;2023-09-08T03:42:51;100544.34;;;16.44;100.00
9059;BME280;4564;42.034;25.834;2023-09-08T03:45:18;100545.28;;;16.25;100.00
9059;BME280;4564;42.034;25.834;2023-09-08T03:47:44;100553.53;;;16.18;100.00
9059;BME280;4564;42.034;25.834;2023-09-08T03:50:11;100548.28;;;16.10;100.00
9059;BME280;4564;42.034;25.834;2023-09-08T03:52:37;100547.72;;;16.02;100.00
9059;BME280;4564;42.034;25.834;2023-09-08T03:55:04;100547.31;;;15.91;100.00
9059;BME280;4564;42.034;25.834;2023-09-08T03:57:31;100560.38;;;15.96;100.00
9059;BME280;4564;42.034;25.834;2023-09-08T03:59:59;100552.75;;;15.98;100.00
9059;BME280;4564;42.034;25.834;2023-09-08T04:02:26;100552.75;;;15.98;100.00
9059;BME280;4564;42.034;25.834;2023-09-08T04:04:52;100558.47;;;15.97;100.00
9059;BME280;4564;42.034;25.834;2023-09-08T04:07:19;100555.91;;;16.08;100.00
9059;BME280;4564;42.034;25.834;2023-09-08T04:09:46;100557.16;;;16.12;100.00
9059;BME280;4564;42.034;25.834;2023-09-08T04:12:12;100563.47;;;16.13;100.00
9059;BME280;4564;42.034;25.834;2023-09-08T04:14:39;100562.19;;;16.09;100.00
9059;BME280;4564;42.034;25.834;2023-09-08T04:17:07;100557.75;;;16.14;100.00
9059;BME280;4564;42.034;25.834;2023-09-08T04:19:34;100565.72;;;16.22;100.00
9059;BME280;4564;42.034;25.834;2023-09-08T04:22:00;100568.03;;;16.25;100.00
9059;BME280;4564;42.034;25.834;2023-09-08T04:24:27;100562.09;;;16.35;100.00
9059;BME280;4564;42.034;25.834;2023-09-08T04:26:53;100557.00;;;16.45;100.00
9059;BME280;4564;42.034;25.834;2023-09-08T04:29:20;100566.16;;;16.64;100.00
9059;BME280;4564;42.034;25.834;2023-09-08T04:31:47;100574.31;;;16.77;100.00
9059;BME280;4564;42.034;25.834;2023-09-08T04:34:15;100575.31;;;16.89;100.00
9059;BME280;4564;42.034;25.834;2023-09-08T04:36:41;100570.16;;;16.99;100.00
9059;BME280;4564;42.034;25.834;2023-09-08T04:39:08;100568.34;;;17.11;100.00
9059;BME280;4564;42.034;25.834;2023-09-08T04:41:36;100578.38;;;17.24;100.00
9059;BME280;4564;42.034;25.834;2023-09-08T04:44:03;100583.66;;;17.26;100.00
9059;BME280;4564;42.034;25.834;2023-09-08T04:46:30;100586.34;;;17.32;100.00
9059;BME280;4564;42.034;25.834;2023-09-08T04:48:57;100584.16;;;17.41;100.00
9059;BME280;4564;42.034;25.834;2023-09-08T04:51:25;100574.72;;;17.55;100.00
9059;BME280;4564;42.034;25.834;2023-09-08T04:53:52;100579.75;;;17.65;100.00
9059;BME280;4564;42.034;25.834;2023-09-08T04:56:18;100577.59;;;17.67;100.00
9059;BME280;4564;42.034;25.834;2023-09-08T04:58:45;100581.28;;;17.79;100.00
9059;BME280;4564;42.034;25.834;2023-09-08T05:01:12;100573.72;;;17.92;100.00
9059;BME280;4564;42.034;25.834;2023-09-08T05:03:38;100578.47;;;18.03;100.00
9059;BME280;4564;42.034;25.834;2023-09-08T05:06:05;100571.47;;;18.08;100.00
9059;BME280;4564;42.034;25.834;2023-09-08T05:08:32;100571.81;;;18.29;100.00
9059;BME280;4564;42.034;25.834;2023-09-08T05:10:59;100578.91;;;18.55;99.81
9059;BME280;4564;42.034;25.834;2023-09-08T05:13:26;100585.44;;;19.14;98.41
9059;BME280;4564;42.034;25.834;2023-09-08T05:15:53;100594.19;;;20.39;93.80
9059;BME280;4564;42.034;25.834;2023-09-08T05:18:25;100587.91;;;22.39;85.01
9059;BME280;4564;42.034;25.834;2023-09-08T05:20:52;100581.25;;;24.21;76.45
9059;BME280;4564;42.034;25.834;2023-09-08T05:23:18;100596.56;;;25.46;70.91
9059;BME280;4564;42.034;25.834;2023-09-08T05:25:46;100599.50;;;26.36;66.90
9059;BME280;4564;42.034;25.834;2023-09-08T05:28:13;100607.28;;;26.98;64.46
9059;BME280;4564;42.034;25.834;2023-09-08T05:30:40;100607.88;;;26.90;64.16
9059;BME280;4564;42.034;25.834;2023-09-08T05:33:09;100616.69;;;27.07;63.50
9059;BME280;4564;42.034;25.834;2023-09-08T05:35:35;100610.50;;;27.54;62.05
9059;BME280;4564;42.034;25.834;2023-09-08T05:38:02;100614.78;;;28.05;60.36
9059;BME280;4564;42.034;25.834;2023-09-08T05:40:29;100618.16;;;28.02;60.67
9059;BME280;4564;42.034;25.834;2023-09-08T05:42:57;100608.56;;;28.36;59.36
9059;BME280;4564;42.034;25.834;2023-09-08T05:45:24;100611.94;;;28.81;57.20
9059;BME280;4564;42.034;25.834;2023-09-08T05:47:51;100620.00;;;28.16;59.32
9059;BME280;4564;42.034;25.834;2023-09-08T05:50:18;100623.00;;;28.20;59.01
9059;BME280;4564;42.034;25.834;2023-09-08T05:52:45;100620.81;;;28.17;59.40
9059;BME280;4564;42.034;25.834;2023-09-08T05:55:11;100619.75;;;29.03;57.08
9059;BME280;4564;42.034;25.834;2023-09-08T05:57:38;100624.72;;;29.43;56.01
9059;BME280;4564;42.034;25.834;2023-09-08T06:00:08;100632.38;;;30.02;54.35
9059;BME280;4564;42.034;25.834;2023-09-08T06:02:35;100625.44;;;29.68;54.45
9059;BME280;4564;42.034;25.834;2023-09-08T06:05:02;100633.91;;;30.68;52.78
9059;BME280;4564;42.034;25.834;2023-09-08T06:07:29;100624.31;;;31.33;49.17
9059;BME280;4564;42.034;25.834;2023-09-08T06:09:56;100623.50;;;31.54;49.29
9059;BME280;4564;42.034;25.834;2023-09-08T06:12:22;100620.00;;;31.93;48.72
9059;BME280;4564;42.034;25.834;2023-09-08T06:14:49;100625.69;;;32.33;45.85
9059;BME280;4564;42.034;25.834;2023-09-08T06:17:17;100624.72;;;32.06;45.84
9059;BME280;4564;42.034;25.834;2023-09-08T06:19:44;100616.28;;;31.17;47.55
9059;BME280;4564;42.034;25.834;2023-09-08T06:22:10;100619.09;;;30.54;48.00
9059;BME280;4564;42.034;25.834;2023-09-08T06:24:37;100624.88;;;31.21;46.06
9059;BME280;4564;42.034;25.834;2023-09-08T06:27:05;100627.06;;;30.61;48.02
9059;BME280;4564;42.034;25.834;2023-09-08T06:29:32;100627.97;;;31.33;46.50
9059;BME280;4564;42.034;25.834;2023-09-08T06:31:58;100627.28;;;31.94;44.42
9059;BME280;4564;42.034;25.834;2023-09-08T06:34:27;100633.78;;;32.74;40.24
9059;BME280;4564;42.034;25.834;2023-09-08T06:36:57;100631.56;;;33.36;38.76
9059;BME280;4564;42.034;25.834;2023-09-08T06:39:24;100635.81;;;33.16;38.26
9059;BME280;4564;42.034;25.834;2023-09-08T06:41:52;100632.84;;;33.64;37.21
9059;BME280;4564;42.034;25.834;2023-09-08T06:44:19;100632.88;;;33.39;38.34
9059;BME280;4564;42.034;25.834;2023-09-08T06:46:45;100632.38;;;34.43;36.23
9059;BME280;4564;42.034;25.834;2023-09-08T06:49:12;100566.81;;;34.46;36.27
9059;BME280;4564;42.034;25.834;2023-09-08T06:51:40;100639.91;;;35.19;33.40
9059;BME280;4564;42.034;25.834;2023-09-08T06:54:07;100628.25;;;35.20;34.90
9059;BME280;4564;42.034;25.834;2023-09-08T06:56:34;100629.09;;;34.71;34.38
9059;BME280;4564;42.034;25.834;2023-09-08T06:59:01;100634.25;;;34.69;35.95
9059;BME280;4564;42.034;25.834;2023-09-08T07:01:28;100631.25;;;34.94;34.67
9059;BME280;4564;42.034;25.834;2023-09-08T07:03:55;100634.69;;;35.29;33.07
9059;BME280;4564;42.034;25.834;2023-09-08T07:06:22;100640.22;;;35.59;31.46
9059;BME280;4564;42.034;25.834;2023-09-08T07:08:50;100638.22;;;35.59;31.84
9059;BME280;4564;42.034;25.834;2023-09-08T07:11:16;100629.03;;;35.29;30.14
9059;BME280;4564;42.034;25.834;2023-09-08T07:13:43;100638.22;;;35.80;29.49
9059;BME280;4564;42.034;25.834;2023-09-08T07:16:10;100640.59;;;35.36;29.83
9059;BME280;4564;42.034;25.834;2023-09-08T07:18:36;100629.09;;;35.21;29.65
9059;BME280;4564;42.034;25.834;2023-09-08T07:21:03;100628.53;;;35.69;27.88
9059;BME280;4564;42.034;25.834;2023-09-08T07:23:30;100624.78;;;35.23;29.00
9059;BME280;4564;42.034;25.834;2023-09-08T07:25:58;100630.44;;;34.94;28.73
9059;BME280;4564;42.034;25.834;2023-09-08T07:28:25;100626.00;;;35.88;28.36
9059;BME280;4564;42.034;25.834;2023-09-08T07:30:51;100631.53;;;36.42;28.60
9059;BME280;4564;42.034;25.834;2023-09-08T07:33:18;100630.00;;;36.32;29.48
9059;BME280;4564;42.034;25.834;2023-09-08T07:35:47;100633.03;;;36.15;28.12
9059;BME280;4564;42.034;25.834;2023-09-08T07:38:14;100613.06;;;35.66;28.51
9059;BME280;4564;42.034;25.834;2023-09-08T07:40:41;100625.06;;;35.30;28.95
9059;BME280;4564;42.034;25.834;2023-09-08T07:43:09;100624.88;;;34.47;30.13
9059;BME280;4564;42.034;25.834;2023-09-08T07:45:36;100613.84;;;33.44;31.31
9059;BME280;4564;42.034;25.834;2023-09-08T07:48:03;100610.56;;;32.60;32.96
9059;BME280;4564;42.034;25.834;2023-09-08T07:50:29;100618.84;;;31.27;35.18
9059;BME280;4564;42.034;25.834;2023-09-08T07:52:56;100620.59;;;30.88;36.55
9059;BME280;4564;42.034;25.834;2023-09-08T07:55:23;100608.78;;;30.22;38.88
9059;BME280;4564;42.034;25.834;2023-09-08T07:57:52;100613.28;;;29.91;38.53
9059;BME280;4564;42.034;25.834;2023-09-08T08:00:21;100606.28;;;29.42;39.38
9059;BME280;4564;42.034;25.834;2023-09-08T08:02:49;100602.28;;;29.11;40.75
9059;BME280;4564;42.034;25.834;2023-09-08T08:05:16;100591.53;;;29.18;40.25
9059;BME280;4564;42.034;25.834;2023-09-08T08:07:43;100599.19;;;29.31;40.85
9059;BME280;4564;42.034;25.834;2023-09-08T08:10:10;100595.25;;;29.32;40.33
9059;BME280;4564;42.034;25.834;2023-09-08T08:12:37;100588.91;;;29.08;41.06
9059;BME280;4564;42.034;25.834;2023-09-08T08:15:04;100591.72;;;29.08;41.73
9059;BME280;4564;42.034;25.834;2023-09-08T08:17:32;100585.66;;;29.01;41.07
9059;BME280;4564;42.034;25.834;2023-09-08T08:19:59;100579.16;;;29.05;42.25
9059;BME280;4564;42.034;25.834;2023-09-08T08:22:32;100584.53;;;29.39;41.71
9059;BME280;4564;42.034;25.834;2023-09-08T08:24:58;100578.47;;;29.65;42.26
9059;BME280;4564;42.034;25.834;2023-09-08T08:28:31;100579.63;;;29.96;39.11
9059;BME280;4564;42.034;25.834;2023-09-08T08:30:16;100579.09;;;29.61;40.29
9059;BME280;4564;42.034;25.834;2023-09-08T08:32:45;100568.59;;;29.53;41.63
9059;BME280;4564;42.034;25.834;2023-09-08T08:35:12;100568.19;;;29.28;41.78
9059;BME280;4564;42.034;25.834;2023-09-08T08:37:39;100559.97;;;29.69;41.90
9059;BME280;4564;42.034;25.834;2023-09-08T08:40:06;100578.91;;;29.72;40.66
9059;BME280;4564;42.034;25.834;2023-09-08T08:42:33;100558.97;;;29.59;40.36
9059;BME280;4564;42.034;25.834;2023-09-08T08:45:00;100571.28;;;29.45;39.68
9059;BME280;4564;42.034;25.834;2023-09-08T08:47:28;100564.41;;;29.37;39.72
9059;BME280;4564;42.034;25.834;2023-09-08T08:49:57;100555.97;;;29.05;39.35
9059;BME280;4564;42.034;25.834;2023-09-08T08:52:25;100551.44;;;29.09;40.26
9059;BME280;4564;42.034;25.834;2023-09-08T08:54:52;100558.63;;;29.15;39.15
9059;BME280;4564;42.034;25.834;2023-09-08T08:57:19;100554.81;;;29.06;39.23
9059;BME280;4564;42.034;25.834;2023-09-08T08:59:46;100546.19;;;29.21;40.24
9059;BME280;4564;42.034;25.834;2023-09-08T09:02:14;100549.28;;;28.87;39.33
9059;BME280;4564;42.034;25.834;2023-09-08T09:04:41;100551.91;;;28.78;40.05
9059;BME280;4564;42.034;25.834;2023-09-08T09:07:09;100550.13;;;28.64;39.83
9059;BME280;4564;42.034;25.834;2023-09-08T09:09:36;100545.72;;;28.82;39.67
9059;BME280;4564;42.034;25.834;2023-09-08T09:12:05;100541.38;;;28.89;39.43
9059;BME280;4564;42.034;25.834;2023-09-08T09:14:32;100548.84;;;29.31;39.31
9059;BME280;4564;42.034;25.834;2023-09-08T09:17:00;100533.97;;;29.36;38.78
9059;BME280;4564;42.034;25.834;2023-09-08T09:19:30;100540.75;;;29.11;39.29
9059;BME280;4564;42.034;25.834;2023-09-08T09:21:57;100530.84;;;28.86;39.82
9059;BME280;4564;42.034;25.834;2023-09-08T09:24:32;100540.22;;;28.76;39.25
9059;BME280;4564;42.034;25.834;2023-09-08T09:26:59;100534.00;;;28.98;39.05
9059;BME280;4564;42.034;25.834;2023-09-08T09:29:27;100547.50;;;29.10;38.51
9059;BME280;4564;42.034;25.834;2023-09-08T09:31:55;100538.63;;;28.47;39.03
9059;BME280;4564;42.034;25.834;2023-09-08T09:34:22;100542.31;;;28.42;40.22
9059;BME280;4564;42.034;25.834;2023-09-08T09:36:50;100538.06;;;28.26;40.21
9059;BME280;4564;42.034;25.834;2023-09-08T09:39:17;100526.63;;;28.46;40.96
9059;BME280;4564;42.034;25.834;2023-09-08T09:41:48;100540.25;;;28.71;40.41
9059;BME280;4564;42.034;25.834;2023-09-08T09:44:15;100546.22;;;28.84;40.25
9059;BME280;4564;42.034;25.834;2023-09-08T09:46:45;100534.06;;;28.74;39.82
9059;BME280;4564;42.034;25.834;2023-09-08T09:49:12;100539.72;;;28.69;39.47
9059;BME280;4564;42.034;25.834;2023-09-08T09:51:40;100539.47;;;28.47;39.95
9059;BME280;4564;42.034;25.834;2023-09-08T09:54:07;100534.25;;;28.41;40.29
9059;BME280;4564;42.034;25.834;2023-09-08T09:56:34;100519.00;;;28.52;40.92
9059;BME280;4564;42.034;25.834;2023-09-08T09:59:05;100517.31;;;28.74;40.21
9059;BME280;4564;42.034;25.834;2023-09-08T10:01:37;100516.91;;;29.00;39.38
9059;BME280;4564;42.034;25.834;2023-09-08T10:04:04;100526.78;;;29.11;39.08
9059;BME280;4564;42.034;25.834;2023-09-08T10:06:31;100522.31;;;29.10;36.77
9059;BME280;4564;42.034;25.834;2023-09-08T10:08:58;100510.97;;;28.88;38.47
9059;BME280;4564;42.034;25.834;2023-09-08T10:11:25;100502.34;;;29.03;37.90
9059;BME280;4564;42.034;25.834;2023-09-08T10:13:54;100503.19;;;28.85;37.51
9059;BME280;4564;42.034;25.834;2023-09-08T10:16:26;100498.88;;;28.73;38.14
9059;BME280;4564;42.034;25.834;2023-09-08T10:18:53;100506.81;;;28.85;38.28
9059;BME280;4564;42.034;25.834;2023-09-08T10:21:21;100498.72;;;29.02;36.63
9059;BME280;4564;42.034;25.834;2023-09-08T10:23:52;100498.56;;;28.94;36.87
9059;BME280;4564;42.034;25.834;2023-09-08T10:26:20;100491.47;;;29.01;36.77
9059;BME280;4564;42.034;25.834;2023-09-08T10:28:48;100497.19;;;29.42;37.19
9059;BME280;4564;42.034;25.834;2023-09-08T10:31:16;100483.56;;;29.82;37.32
9059;BME280;4564;42.034;25.834;2023-09-08T10:33:44;100487.81;;;29.52;36.93
9059;BME280;4564;42.034;25.834;2023-09-08T10:36:12;100489.66;;;29.24;35.76
9059;BME280;4564;42.034;25.834;2023-09-08T10:38:39;100488.53;;;29.25;35.78
9059;BME280;4564;42.034;25.834;2023-09-08T10:41:27;100474.47;;;29.30;35.20
9059;BME280;4564;42.034;25.834;2023-09-08T10:43:58;100474.47;;;29.30;35.59
9059;BME280;4564;42.034;25.834;2023-09-08T10:46:27;100469.66;;;29.36;35.20
9059;BME280;4564;42.034;25.834;2023-09-08T10:49:00;100477.19;;;29.35;34.68
9059;BME280;4564;42.034;25.834;2023-09-08T10:51:28;100463.31;;;29.44;35.19
9059;BME280;4564;42.034;25.834;2023-09-08T10:53:55;100461.91;;;29.46;35.38
9059;BME280;4564;42.034;25.834;2023-09-08T10:56:26;100465.63;;;29.55;35.57
9059;BME280;4564;42.034;25.834;2023-09-08T10:58:53;100462.59;;;29.38;36.45
9059;BME280;4564;42.034;25.834;2023-09-08T11:01:20;100462.41;;;29.16;36.43
9059;BME280;4564;42.034;25.834;2023-09-08T11:03:51;100465.53;;;29.28;36.57
9059;BME280;4564;42.034;25.834;2023-09-08T11:06:20;100461.25;;;29.36;36.70
9059;BME280;4564;42.034;25.834;2023-09-08T11:08:48;100449.00;;;29.32;36.35
9059;BME280;4564;42.034;25.834;2023-09-08T11:11:18;100462.69;;;29.33;36.55
9059;BME280;4564;42.034;25.834;2023-09-08T11:13:45;100456.28;;;29.46;36.95
9059;BME280;4564;42.034;25.834;2023-09-08T11:16:12;100455.69;;;29.63;37.36
9059;BME280;4564;42.034;25.834;2023-09-08T11:18:40;100452.34;;;29.75;36.63
9059;BME280;4564;42.034;25.834;2023-09-08T11:21:08;100450.69;;;29.60;36.71
9059;BME280;4564;42.034;25.834;2023-09-08T11:23:36;100464.69;;;29.46;37.09
9059;BME280;4564;42.034;25.834;2023-09-08T11:26:04;100457.72;;;29.44;37.15
9059;BME280;4564;42.034;25.834;2023-09-08T11:28:34;100460.66;;;29.52;37.03
9059;BME280;4564;42.034;25.834;2023-09-08T11:31:00;100446.56;;;29.57;36.59
9059;BME280;4564;42.034;25.834;2023-09-08T11:33:32;100450.28;;;29.53;36.86
9059;BME280;4564;42.034;25.834;2023-09-08T11:35:59;100454.63;;;29.45;36.38
9059;BME280;4564;42.034;25.834;2023-09-08T11:38:26;100440.94;;;29.44;36.98
9059;BME280;4564;42.034;25.834;2023-09-08T11:40:54;100434.63;;;29.38;37.29
9059;BME280;4564;42.034;25.834;2023-09-08T11:43:22;100432.59;;;29.57;37.60
9059;BME280;4564;42.034;25.834;2023-09-08T11:45:49;100422.94;;;29.77;36.88
9059;BME280;4564;42.034;25.834;2023-09-08T11:48:16;100424.78;;;29.82;36.67
9059;BME280;4564;42.034;25.834;2023-09-08T11:50:43;100424.47;;;29.70;36.68
9059;BME280;4564;42.034;25.834;2023-09-08T11:53:10;100414.66;;;29.72;36.91
9059;BME280;4564;42.034;25.834;2023-09-08T11:55:36;100409.34;;;29.71;37.18
9059;BME280;4564;42.034;25.834;2023-09-08T11:58:05;100415.56;;;30.09;36.62
9059;BME280;4564;42.034;25.834;2023-09-08T12:00:32;100412.69;;;30.50;35.54
9059;BME280;4564;42.034;25.834;2023-09-08T12:03:09;100415.00;;;30.70;36.19
9059;BME280;4564;42.034;25.834;2023-09-08T12:05:36;100408.03;;;30.67;35.67
9059;BME280;4564;42.034;25.834;2023-09-08T12:08:03;100417.84;;;30.56;36.13
9059;BME280;4564;42.034;25.834;2023-09-08T12:10:37;100407.91;;;30.36;36.50
9059;BME280;4564;42.034;25.834;2023-09-08T12:13:05;100403.38;;;30.27;36.57
9059;BME280;4564;42.034;25.834;2023-09-08T12:15:33;100401.31;;;30.19;36.51
9059;BME280;4564;42.034;25.834;2023-09-08T12:17:59;100392.19;;;29.64;38.33
9059;BME280;4564;42.034;25.834;2023-09-08T12:20:27;100396.81;;;29.54;38.56
9059;BME280;4564;42.034;25.834;2023-09-08T12:22:54;100399.19;;;29.34;38.75
9059;BME280;4564;42.034;25.834;2023-09-08T12:25:20;100398.44;;;29.28;38.76
9059;BME280;4564;42.034;25.834;2023-09-08T12:27:49;100397.16;;;29.20;39.16
9059;BME280;4564;42.034;25.834;2023-09-08T12:30:18;100401.13;;;29.19;38.10
9059;BME280;4564;42.034;25.834;2023-09-08T12:32:46;100389.00;;;29.24;39.59
9059;BME280;4564;42.034;25.834;2023-09-08T12:35:18;100395.84;;;29.18;39.43
9059;BME280;4564;42.034;25.834;2023-09-08T12:37:46;100402.25;;;29.18;39.69
9059;BME280;4564;42.034;25.834;2023-09-08T12:40:13;100394.16;;;29.03;40.32
9059;BME280;4564;42.034;25.834;2023-09-08T12:42:40;100399.59;;;28.95;39.89
9059;BME280;4564;42.034;25.834;2023-09-08T12:45:07;100407.81;;;28.72;40.27
9059;BME280;4564;42.034;25.834;2023-09-08T12:47:35;100393.25;;;28.57;40.43
9059;BME280;4564;42.034;25.834;2023-09-08T12:50:02;100395.19;;;28.56;40.61
9059;BME280;4564;42.034;25.834;2023-09-08T12:52:29;100394.22;;;28.66;40.21
9059;BME280;4564;42.034;25.834;2023-09-08T12:54:57;100393.47;;;28.79;41.04
9059;BME280;4564;42.034;25.834;2023-09-08T12:57:23;100382.63;;;28.91;40.57